Time;durP1;ratioP1;P1;durP2;ratioP2;P2;SDS_P1;SDS_P2;PMS_P1;PMS_P2;Temp;Humidity;BMP_temperature;BMP_pressure;BME280_temperature;BME280_humidity;BME280_pressure;Samples;Min_cycle;Max_cycle;Signal;HPM_P1;HPM_P2
2022/10/09 00:07:25;;;;;;;0.98;0.40;;;15.10;99.90;;;;;;4957274;28;20217;-74
2022/10/09 00:13:48;;;;;;;2.65;0.43;;;15.30;99.90;;;;;;4957195;28;20240;-75
2022/10/09 00:19:51;;;;;;;0.73;0.30;;;15.40;99.90;;;;;;4924629;29;20204;-74
2022/10/09 00:22:21;;;;;;;0.60;0.25;;;15.40;99.90;;;;;;4936011;29;20189;-74
2022/10/09 00:24:52;;;;;;;1.23;0.40;;;15.30;99.90;;;;;;4936225;29;20190;-75
2022/10/09 00:27:25;;;;;;;3.33;0.40;;;15.40;99.90;;;;;;4936008;29;20197;-75
2022/10/09 00:29:56;;;;;;;1.38;0.50;;;15.50;99.90;;;;;;4954823;29;20232;-76
2022/10/09 00:32:29;;;;;;;1.23;0.50;;;15.70;99.90;;;;;;4955063;29;20197;-75
2022/10/09 00:35:00;;;;;;;2.00;0.50;;;15.80;99.90;;;;;;4954573;29;20221;-74
2022/10/09 00:37:35;;;;;;;3.10;0.47;;;16.00;99.90;;;;;;4954962;29;20197;-75
2022/10/09 00:40:06;;;;;;;1.75;0.47;;;16.10;99.90;;;;;;4954602;29;20212;-75
2022/10/09 00:56:32;;;;;;;3.20;0.50;;;16.30;99.90;;;;;;4769440;30;20292;-75
2022/10/09 01:57:39;;;;;;;1.75;0.50;;;16.60;99.90;;;;;;4922209;29;20206;-77
2022/10/09 02:10:44;;;;;;;3.38;0.60;;;16.60;99.90;;;;;;4849444;29;20356;-77
2022/10/09 02:17:30;;;;;;;2.72;0.70;;;16.30;99.90;;;;;;4835708;29;20672;-76
2022/10/09 02:24:21;;;;;;;3.63;0.82;;;15.90;99.90;;;;;;4771810;29;20222;-77
2022/10/09 02:49:19;;;;;;;1.25;0.30;;;16.10;99.90;;;;;;4959008;28;20235;-77
2022/10/09 03:32:47;;;;;;;1.58;0.60;;;15.70;99.90;;;;;;4905828;29;20269;-77
2022/10/09 03:52:43;;;;;;;1.15;0.60;;;16.80;99.90;;;;;;4954821;29;20223;-80
2022/10/09 03:55:24;;;;;;;1.23;0.50;;;16.90;99.90;;;;;;4917749;29;20214;-78
2022/10/09 03:58:40;;;;;;;2.95;0.70;;;17.00;99.90;;;;;;4911344;29;20213;-78
2022/10/09 04:08:41;;;;;;;1.75;0.60;;;16.90;99.90;;;;;;4768522;30;20295;-78
2022/10/09 04:48:44;;;;;;;5.00;0.88;;;16.10;99.90;;;;;;4720628;30;20251;-78
2022/10/09 05:19:07;;;;;;;3.47;0.90;;;16.20;99.90;;;;;;4725933;30;20721;-78
2022/10/09 05:22:35;;;;;;;4.88;0.70;;;16.20;99.90;;;;;;4775379;30;20215;-78
2022/10/09 05:45:48;;;;;;;4.22;0.95;;;15.80;99.90;;;;;;4790707;29;20666;-79
2022/10/09 05:52:42;;;;;;;5.45;0.80;;;16.00;99.90;;;;;;4779609;29;20800;-82
2022/10/09 07:59:21;;;;;;;2.63;1.05;;;14.60;99.90;;;;;;3764740;28;23113;-70
2022/10/09 08:01:52;;;;;;;12.18;1.65;;;14.60;99.90;;;;;;5064764;23;20244;-74
2022/10/09 08:04:23;;;;;;;2.38;0.90;;;14.60;99.90;;;;;;4963171;28;20201;-75
2022/10/09 08:06:57;;;;;;;5.80;1.58;;;14.50;99.90;;;;;;4961011;28;20197;-76
2022/10/09 08:09:28;;;;;;;4.90;0.90;;;14.50;99.90;;;;;;4963443;28;20200;-76
2022/10/09 08:11:59;;;;;;;6.78;1.02;;;14.40;99.90;;;;;;4961347;28;20207;-75
2022/10/09 08:14:32;;;;;;;6.35;1.00;;;14.40;99.90;;;;;;4963971;28;20210;-74
2022/10/09 08:17:03;;;;;;;4.57;0.90;;;14.40;99.90;;;;;;4964751;28;20196;-74
2022/10/09 08:19:34;;;;;;;4.93;0.90;;;14.50;99.90;;;;;;4966272;28;20675;-77
2022/10/09 08:22:05;;;;;;;5.32;1.17;;;14.50;99.90;;;;;;4948811;28;20292;-77
2022/10/09 08:24:36;;;;;;;5.75;1.92;;;14.50;99.90;;;;;;4960450;28;20205;-74
2022/10/09 08:27:07;;;;;;;4.68;1.17;;;14.50;99.90;;;;;;4969126;28;20304;-73
2022/10/09 08:29:40;;;;;;;3.55;1.33;;;14.50;99.90;;;;;;4969277;28;20209;-77
2022/10/09 08:32:11;;;;;;;6.07;1.10;;;14.50;99.90;;;;;;4967430;28;20235;-76
2022/10/09 08:34:42;;;;;;;4.32;1.00;;;14.50;99.90;;;;;;4964345;28;20208;-76
2022/10/09 08:37:13;;;;;;;5.30;1.35;;;14.60;99.90;;;;;;4960072;28;20201;-78
2022/10/09 08:39:44;;;;;;;8.23;1.40;;;14.60;99.90;;;;;;4966147;28;20189;-77
2022/10/09 08:42:28;;;;;;;181.27;119.35;;;14.60;99.90;;;;;;4960807;28;20197;-76
2022/10/09 08:45:01;;;;;;;190.43;108.13;;;14.60;99.90;;;;;;4965638;28;20211;-76
2022/10/09 08:47:40;;;;;;;49.25;31.05;;;14.60;99.90;;;;;;4965631;28;20671;-78
2022/10/09 08:50:16;;;;;;;18.73;11.10;;;14.60;99.90;;;;;;4964439;28;20212;-78
2022/10/09 08:52:54;;;;;;;10.57;3.30;;;14.60;99.90;;;;;;4968759;28;20208;-74
2022/10/09 08:55:28;;;;;;;8.57;3.78;;;14.60;99.90;;;;;;4969223;28;20196;-77
2022/10/09 08:58:04;;;;;;;8.55;2.70;;;14.70;99.90;;;;;;4968621;28;20615;-76
2022/10/09 09:00:42;;;;;;;8.05;2.10;;;14.60;99.90;;;;;;4960806;28;20236;-78
2022/10/09 09:03:36;;;;;;;10.55;5.80;;;14.60;99.90;;;;;;4964547;28;20199;-82
2022/10/09 09:06:13;;;;;;;11.80;8.23;;;14.60;99.90;;;;;;4972042;28;20192;-81
2022/10/09 09:08:53;;;;;;;10.85;3.92;;;14.70;99.90;;;;;;4966133;28;20250;-80
2022/10/09 09:11:35;;;;;;;6.95;2.85;;;14.70;99.90;;;;;;4971070;28;20227;-79
2022/10/09 09:14:19;;;;;;;4.22;1.20;;;14.60;99.90;;;;;;4970008;28;20509;-79
2022/10/09 09:16:58;;;;;;;7.03;1.52;;;14.60;99.90;;;;;;4963461;28;20200;-78
2022/10/09 09:19:51;;;;;;;6.07;1.83;;;14.50;99.90;;;;;;4965446;28;20192;-77
2022/10/09 09:22:23;;;;;;;6.70;1.40;;;14.50;99.90;;;;;;4972970;28;20196;-80
2022/10/09 09:24:55;;;;;;;8.23;1.42;;;14.40;99.90;;;;;;4959150;28;20197;-79
2022/10/09 09:27:31;;;;;;;6.57;1.50;;;14.40;99.90;;;;;;4972236;28;20644;-80
2022/10/09 09:30:14;;;;;;;7.65;1.35;;;14.40;99.90;;;;;;4967407;28;20226;-79
2022/10/09 09:32:52;;;;;;;7.18;1.17;;;14.40;99.90;;;;;;4966683;28;20200;-80
2022/10/09 09:35:36;;;;;;;6.97;1.10;;;14.40;99.90;;;;;;4972648;28;20192;-81
2022/10/09 09:38:07;;;;;;;6.93;1.17;;;14.40;99.90;;;;;;4974202;28;20200;-70
2022/10/09 09:40:38;;;;;;;4.82;1.10;;;14.40;99.90;;;;;;4970691;28;20570;-73
2022/10/09 09:43:19;;;;;;;6.82;1.25;;;14.40;99.90;;;;;;4961640;28;20197;-80
2022/10/09 09:45:53;;;;;;;3.97;1.25;;;14.30;99.90;;;;;;4965377;28;20197;-80
2022/10/09 09:48:33;;;;;;;4.95;1.30;;;14.40;99.90;;;;;;4962868;28;20646;-79
2022/10/09 09:51:06;;;;;;;6.80;1.17;;;14.30;99.90;;;;;;4960773;28;20220;-80
2022/10/09 09:53:39;;;;;;;4.35;1.20;;;14.30;99.90;;;;;;4964580;28;20223;-79
2022/10/09 09:56:11;;;;;;;5.78;1.35;;;14.30;99.90;;;;;;4963972;28;20201;-79
2022/10/09 09:58:46;;;;;;;4.88;1.33;;;14.20;99.90;;;;;;4971770;28;20196;-78
2022/10/09 10:01:25;;;;;;;4.30;1.10;;;14.20;99.90;;;;;;4967104;28;20242;-79
2022/10/09 10:03:59;;;;;;;4.30;1.33;;;14.20;99.90;;;;;;4967413;28;20203;-78
2022/10/09 10:06:34;;;;;;;4.82;1.40;;;14.10;99.90;;;;;;4972535;28;20655;-78
2022/10/09 10:09:05;;;;;;;6.13;1.63;;;14.10;99.90;;;;;;4969125;28;20200;-79
2022/10/09 10:11:37;;;;;;;2.72;1.02;;;14.10;99.90;;;;;;4968993;28;20220;-78
2022/10/09 10:14:15;;;;;;;4.18;1.38;;;14.00;99.90;;;;;;4959983;28;20192;-78
2022/10/09 10:16:49;;;;;;;8.68;1.45;;;14.00;99.90;;;;;;4971823;28;20195;-79
2022/10/09 10:19:26;;;;;;;5.75;1.50;;;14.00;99.90;;;;;;4969396;28;20193;-78
2022/10/09 10:22:02;;;;;;;3.63;1.40;;;14.00;99.90;;;;;;4959087;28;20204;-76
2022/10/09 10:24:37;;;;;;;5.82;1.20;;;13.90;99.90;;;;;;4965239;28;20215;-78
2022/10/09 10:27:15;;;;;;;3.13;1.20;;;13.90;99.90;;;;;;4956581;28;20193;-77
2022/10/09 10:29:48;;;;;;;6.35;1.20;;;13.90;99.90;;;;;;4960458;28;20196;-75
2022/10/09 10:32:24;;;;;;;6.20;1.30;;;13.90;99.90;;;;;;4968998;28;20202;-78
2022/10/09 10:34:59;;;;;;;8.80;1.50;;;13.90;99.90;;;;;;4964986;28;20207;-78
2022/10/09 10:37:37;;;;;;;4.53;1.40;;;13.80;99.90;;;;;;4962209;28;20204;-78
2022/10/09 10:40:15;;;;;;;7.60;1.52;;;13.80;99.90;;;;;;4965050;28;20223;-71
2022/10/09 10:43:03;;;;;;;5.65;1.30;;;13.90;99.90;;;;;;4967381;28;20196;-75
2022/10/09 10:45:41;;;;;;;5.65;1.25;;;13.80;99.90;;;;;;4973186;28;20561;-78
2022/10/09 10:48:16;;;;;;;4.88;1.80;;;13.80;99.90;;;;;;4964528;28;20204;-79
2022/10/09 10:50:55;;;;;;;4.47;1.67;;;13.80;99.90;;;;;;4972101;28;20214;-78
2022/10/09 10:53:35;;;;;;;7.70;2.00;;;13.80;99.90;;;;;;4971702;28;20228;-80
2022/10/09 10:56:13;;;;;;;7.03;2.00;;;13.80;99.90;;;;;;4968776;28;20210;-79
2022/10/09 10:58:52;;;;;;;7.38;2.10;;;13.80;99.90;;;;;;4966375;28;20199;-77
2022/10/09 11:01:34;;;;;;;7.25;2.70;;;13.80;99.90;;;;;;4969480;28;20239;-80
2022/10/09 11:04:27;;;;;;;4.95;2.33;;;13.80;99.90;;;;;;4967986;28;20201;-79
2022/10/09 11:07:10;;;;;;;6.55;2.40;;;13.70;99.90;;;;;;4968935;28;20196;-78
2022/10/09 11:09:48;;;;;;;6.22;2.00;;;13.60;99.90;;;;;;4972266;28;20228;-79
2022/10/09 11:12:27;;;;;;;7.22;2.17;;;13.70;99.90;;;;;;4968170;28;20690;-78
2022/10/09 11:15:05;;;;;;;6.13;2.20;;;13.70;99.90;;;;;;4966082;28;20283;-80
2022/10/09 11:17:41;;;;;;;8.50;2.38;;;13.70;99.90;;;;;;4961501;28;20195;-79
2022/10/09 11:20:36;;;;;;;7.63;1.88;;;13.70;99.90;;;;;;4974415;28;20211;-78
2022/10/09 11:23:18;;;;;;;8.32;2.42;;;13.70;99.90;;;;;;4969385;28;20216;-79
2022/10/09 11:25:57;;;;;;;7.93;2.67;;;13.80;99.90;;;;;;4965945;28;20671;-80
2022/10/09 11:28:32;;;;;;;7.72;2.35;;;13.80;99.90;;;;;;4964663;28;20279;-80
2022/10/09 11:31:07;;;;;;;9.18;2.40;;;13.80;99.90;;;;;;4973479;28;20311;-80
2022/10/09 11:33:44;;;;;;;7.68;2.38;;;13.90;99.90;;;;;;4964993;28;20193;-80
2022/10/09 11:36:19;;;;;;;5.80;1.90;;;13.90;99.90;;;;;;4973361;28;20210;-80
2022/10/09 11:38:58;;;;;;;11.07;2.38;;;13.90;99.90;;;;;;4970568;28;20197;-80
2022/10/09 11:41:30;;;;;;;6.47;1.95;;;13.90;99.90;;;;;;4966170;28;20221;-78
2022/10/09 11:44:17;;;;;;;7.80;2.00;;;13.90;99.90;;;;;;4968287;28;20197;-79
2022/10/09 11:46:55;;;;;;;5.88;1.98;;;13.90;99.90;;;;;;4969227;28;20568;-79
2022/10/09 11:49:30;;;;;;;6.00;2.30;;;13.90;99.90;;;;;;4974536;28;20228;-80
2022/10/09 11:52:11;;;;;;;5.93;1.90;;;13.90;99.90;;;;;;4975379;28;20218;-78
2022/10/09 11:54:44;;;;;;;8.57;2.00;;;13.90;99.90;;;;;;4964747;28;20197;-80
2022/10/09 11:57:15;;;;;;;6.97;2.15;;;13.90;99.90;;;;;;4968542;28;20196;-80
2022/10/09 11:59:46;;;;;;;9.63;1.90;;;13.90;99.90;;;;;;4971550;28;20210;-81
2022/10/09 12:02:27;;;;;;;5.43;1.83;;;13.90;99.90;;;;;;4962167;28;20239;-80
2022/10/09 12:04:58;;;;;;;9.02;2.42;;;13.90;99.90;;;;;;4963883;28;20201;-80
2022/10/09 12:07:34;;;;;;;5.75;2.05;;;13.90;99.90;;;;;;4970171;28;20196;-80
2022/10/09 12:10:10;;;;;;;7.10;2.00;;;13.90;99.90;;;;;;4968019;28;20189;-81
2022/10/09 12:12:41;;;;;;;6.25;1.98;;;13.90;99.90;;;;;;4970289;28;20211;-78
2022/10/09 12:15:28;;;;;;;5.22;1.85;;;13.80;99.90;;;;;;4964997;28;20193;-81
2022/10/09 12:17:59;;;;;;;7.20;2.40;;;13.80;99.90;;;;;;4970214;28;20287;-81
2022/10/09 12:20:30;;;;;;;4.90;2.00;;;13.80;99.90;;;;;;4965844;28;20201;-80
2022/10/09 12:23:02;;;;;;;8.02;2.33;;;13.80;99.90;;;;;;4967081;28;20556;-81
2022/10/09 12:25:44;;;;;;;6.78;2.25;;;13.70;99.90;;;;;;4968969;28;20188;-74
2022/10/09 12:28:26;;;;;;;6.55;2.10;;;13.70;99.90;;;;;;4965991;28;20195;-80
2022/10/09 12:30:59;;;;;;;8.05;2.20;;;13.60;99.90;;;;;;4970418;28;20216;-81
2022/10/09 12:33:36;;;;;;;9.02;2.13;;;13.60;99.90;;;;;;4967015;28;20656;-81
2022/10/09 12:36:13;;;;;;;8.40;2.10;;;13.60;99.90;;;;;;4965767;28;20699;-80
2022/10/09 12:38:44;;;;;;;8.68;2.08;;;13.50;99.90;;;;;;4968841;28;20195;-80
2022/10/09 12:41:20;;;;;;;6.65;2.10;;;13.50;99.90;;;;;;4965997;28;20202;-80
2022/10/09 12:43:51;;;;;;;5.20;1.90;;;13.40;99.90;;;;;;4968695;28;20234;-80
2022/10/09 12:46:37;;;;;;;4.45;1.90;;;13.40;99.90;;;;;;4966645;28;20204;-80
2022/10/09 12:49:18;;;;;;;5.18;1.98;;;13.30;99.90;;;;;;4962950;28;20210;-79
2022/10/09 12:51:55;;;;;;;11.23;2.28;;;13.30;99.90;;;;;;4965159;28;20216;-80
2022/10/09 12:54:26;;;;;;;6.97;1.88;;;13.30;99.90;;;;;;4967843;28;20202;-80
2022/10/09 12:57:01;;;;;;;5.65;1.70;;;13.20;99.90;;;;;;4966869;28;20216;-79
2022/10/09 12:59:32;;;;;;;4.28;1.80;;;13.20;99.90;;;;;;4972128;28;20200;-79
2022/10/09 13:02:03;;;;;;;5.93;1.98;;;13.10;99.90;;;;;;4966763;28;20271;-79
2022/10/09 13:04:35;;;;;;;7.20;2.00;;;13.10;99.90;;;;;;4963742;28;20204;-79
2022/10/09 13:07:10;;;;;;;6.85;1.90;;;13.10;99.90;;;;;;4968104;28;20193;-80
2022/10/09 13:09:42;;;;;;;8.00;2.30;;;13.00;99.90;;;;;;4969482;28;20215;-79
2022/10/09 13:12:20;;;;;;;8.07;2.08;;;13.00;99.90;;;;;;4963250;28;20223;-80
2022/10/09 13:14:56;;;;;;;3.33;1.67;;;12.90;99.90;;;;;;4961924;28;20653;-79
2022/10/09 13:17:32;;;;;;;6.13;1.90;;;12.90;99.90;;;;;;4966434;28;20204;-80
2022/10/09 13:20:05;;;;;;;7.50;2.42;;;12.90;99.90;;;;;;4964294;28;20205;-78
2022/10/09 13:22:36;;;;;;;7.53;2.55;;;12.80;99.90;;;;;;4969647;28;20204;-80
2022/10/09 13:25:08;;;;;;;6.75;2.55;;;12.80;99.90;;;;;;4962843;28;20696;-79
2022/10/09 13:27:42;;;;;;;7.65;2.20;;;12.80;99.90;;;;;;4962685;28;20649;-80
2022/10/09 13:30:14;;;;;;;6.32;2.40;;;12.80;99.90;;;;;;4961441;28;20193;-80
2022/10/09 13:32:45;;;;;;;4.55;2.00;;;12.80;99.90;;;;;;4964483;28;20684;-78
2022/10/09 13:35:16;;;;;;;7.72;1.98;;;12.70;99.90;;;;;;4964122;28;20200;-80
2022/10/09 13:37:47;;;;;;;7.43;2.15;;;12.70;99.90;;;;;;4966251;28;20222;-78
2022/10/09 13:40:21;;;;;;;5.70;2.00;;;12.70;99.90;;;;;;4964577;28;20203;-79
2022/10/09 13:42:58;;;;;;;5.78;1.92;;;12.70;99.90;;;;;;4968711;28;20204;-77
2022/10/09 13:45:29;;;;;;;5.53;1.83;;;12.60;99.90;;;;;;4968110;28;20200;-78
2022/10/09 13:48:00;;;;;;;5.90;1.88;;;12.60;99.90;;;;;;4958789;28;20201;-79
2022/10/09 13:50:31;;;;;;;6.05;1.88;;;12.60;99.90;;;;;;4964118;28;20201;-78
2022/10/09 13:53:02;;;;;;;7.10;1.95;;;12.60;99.90;;;;;;4968377;28;20228;-78
2022/10/09 13:55:33;;;;;;;5.40;2.20;;;12.60;99.90;;;;;;4968186;28;20197;-76
2022/10/09 13:58:06;;;;;;;4.68;1.83;;;12.60;99.90;;;;;;4968300;28;20572;-78
2022/10/09 14:00:37;;;;;;;6.22;1.90;;;12.60;99.90;;;;;;4962921;28;20263;-75
2022/10/09 14:03:08;;;;;;;5.68;1.88;;;12.60;99.90;;;;;;4966341;28;20200;-78
2022/10/09 14:05:39;;;;;;;5.55;1.70;;;12.60;99.90;;;;;;4966878;28;20564;-79
2022/10/09 14:08:10;;;;;;;8.50;1.88;;;12.60;99.90;;;;;;4967958;28;20672;-79
2022/10/09 14:10:44;;;;;;;5.45;1.65;;;12.70;99.90;;;;;;4967910;28;20223;-79
2022/10/09 14:13:17;;;;;;;6.30;1.70;;;12.70;99.90;;;;;;4962895;28;20455;-79
2022/10/09 14:15:47;;;;;;;6.22;1.70;;;12.70;99.90;;;;;;4961287;28;20201;-79
2022/10/09 14:18:18;;;;;;;5.53;1.60;;;12.70;99.90;;;;;;4966875;28;20659;-79
2022/10/09 14:20:49;;;;;;;5.65;1.50;;;12.70;99.90;;;;;;4964657;28;20228;-74
2022/10/09 14:23:20;;;;;;;3.50;1.70;;;12.70;99.90;;;;;;4967889;28;20196;-78
2022/10/09 14:25:51;;;;;;;5.88;1.38;;;12.70;99.90;;;;;;4966314;28;20196;-79
2022/10/09 14:28:24;;;;;;;4.90;1.40;;;12.70;99.90;;;;;;4969626;28;20196;-79
2022/10/09 14:30:55;;;;;;;3.83;1.42;;;12.70;99.90;;;;;;4964243;28;20206;-79
2022/10/09 14:33:25;;;;;;;6.10;1.60;;;12.70;99.90;;;;;;4965047;28;20223;-79
2022/10/09 14:35:56;;;;;;;4.43;1.40;;;12.70;99.90;;;;;;4965246;28;20201;-77
2022/10/09 14:38:27;;;;;;;5.15;1.77;;;12.70;99.90;;;;;;4966263;28;20201;-79
2022/10/09 14:40:59;;;;;;;8.13;1.48;;;12.70;99.90;;;;;;4964440;28;20204;-78
2022/10/09 14:43:32;;;;;;;6.15;2.00;;;12.70;99.90;;;;;;4964556;28;20275;-78
2022/10/09 14:46:07;;;;;;;5.95;1.63;;;12.70;99.90;;;;;;4968088;28;20200;-76
2022/10/09 14:48:38;;;;;;;5.70;1.88;;;12.70;99.90;;;;;;4962335;28;20200;-78
2022/10/09 14:51:12;;;;;;;7.70;1.75;;;12.70;99.90;;;;;;4964945;28;20193;-78
2022/10/09 14:53:43;;;;;;;5.28;1.40;;;12.70;99.90;;;;;;4968242;28;20208;-78
2022/10/09 14:56:15;;;;;;;4.15;1.40;;;12.70;99.90;;;;;;4966219;28;20200;-80
2022/10/09 14:58:49;;;;;;;4.65;1.40;;;12.70;99.90;;;;;;4963015;28;20208;-79
2022/10/09 15:01:23;;;;;;;5.78;1.50;;;12.70;99.90;;;;;;4965480;28;20247;-79
2022/10/09 15:03:54;;;;;;;4.53;1.38;;;12.70;99.90;;;;;;4960924;28;20682;-79
2022/10/09 15:06:26;;;;;;;2.45;1.33;;;12.70;99.90;;;;;;4966080;28;20205;-78
2022/10/09 15:08:59;;;;;;;6.82;1.55;;;12.70;99.90;;;;;;4966896;28;20225;-78
2022/10/09 15:11:31;;;;;;;5.15;1.30;;;12.70;99.90;;;;;;4968237;28;20197;-79
2022/10/09 15:14:04;;;;;;;6.15;1.48;;;12.70;99.90;;;;;;4969205;28;20200;-78
2022/10/09 15:16:35;;;;;;;5.10;1.60;;;12.70;99.90;;;;;;4971065;28;20211;-74
2022/10/09 15:19:06;;;;;;;4.75;1.08;;;12.60;99.90;;;;;;4962552;28;20204;-77
2022/10/09 15:21:38;;;;;;;6.80;1.30;;;12.60;99.90;;;;;;4966196;28;20216;-76
2022/10/09 15:24:09;;;;;;;3.75;1.23;;;12.60;99.90;;;;;;4966295;28;20682;-78
2022/10/09 15:26:40;;;;;;;4.07;1.15;;;12.60;99.90;;;;;;4967605;28;20649;-78
2022/10/09 15:29:14;;;;;;;8.68;1.35;;;12.50;99.90;;;;;;4965069;28;20233;-78
2022/10/09 15:31:45;;;;;;;3.97;1.20;;;12.50;99.90;;;;;;4969929;28;20200;-78
2022/10/09 15:34:20;;;;;;;4.75;1.13;;;12.50;99.90;;;;;;4965775;28;20204;-77
2022/10/09 15:36:50;;;;;;;3.72;1.05;;;12.40;99.90;;;;;;4965096;28;20660;-78
2022/10/09 15:39:22;;;;;;;3.83;1.27;;;12.40;99.90;;;;;;4961941;28;20204;-77
2022/10/09 15:41:53;;;;;;;6.35;1.55;;;12.40;99.90;;;;;;4962883;28;20652;-80
2022/10/09 15:44:26;;;;;;;4.57;1.00;;;12.40;99.90;;;;;;4964621;28;20675;-80
2022/10/09 15:46:57;;;;;;;3.05;1.13;;;12.40;99.90;;;;;;4971234;28;20555;-79
2022/10/09 15:49:28;;;;;;;3.95;1.10;;;12.40;99.90;;;;;;4966750;28;20792;-80
2022/10/09 15:51:58;;;;;;;2.15;1.00;;;12.40;99.90;;;;;;4970265;28;20221;-80
2022/10/09 15:54:29;;;;;;;4.45;0.88;;;12.40;99.90;;;;;;4970208;28;20605;-80
2022/10/09 15:57:00;;;;;;;3.42;0.93;;;12.40;99.90;;;;;;4969378;28;20193;-80
2022/10/09 15:59:36;;;;;;;4.90;1.20;;;12.40;99.90;;;;;;4968150;28;20216;-79
2022/10/09 16:02:07;;;;;;;3.63;1.05;;;12.40;99.90;;;;;;4967508;28;20575;-79
2022/10/09 16:04:37;;;;;;;2.72;0.90;;;12.40;99.90;;;;;;4970462;28;20205;-80
2022/10/09 16:07:08;;;;;;;3.50;1.00;;;12.40;99.90;;;;;;4965018;28;20200;-79
2022/10/09 16:09:39;;;;;;;3.80;1.00;;;12.40;99.90;;;;;;4967593;28;20224;-77
2022/10/09 16:12:10;;;;;;;3.35;0.93;;;12.40;99.90;;;;;;4970184;28;20212;-82
2022/10/09 16:14:43;;;;;;;5.07;1.40;;;12.40;99.90;;;;;;4967275;28;20201;-79
2022/10/09 16:17:14;;;;;;;2.63;0.85;;;12.40;99.90;;;;;;4969920;28;20196;-80
2022/10/09 16:19:45;;;;;;;3.97;1.10;;;12.50;99.90;;;;;;4967982;28;20200;-78
2022/10/09 16:22:16;;;;;;;4.30;1.00;;;12.50;99.90;;;;;;4970690;28;20215;-79
2022/10/09 16:24:47;;;;;;;4.88;1.15;;;12.60;99.90;;;;;;4970319;28;20201;-77
2022/10/09 16:27:18;;;;;;;4.28;1.08;;;12.60;99.90;;;;;;4965426;28;20201;-78
2022/10/09 16:29:51;;;;;;;5.13;1.00;;;12.60;99.90;;;;;;4970592;28;20200;-78
2022/10/09 16:32:22;;;;;;;7.05;1.10;;;12.70;99.90;;;;;;4963578;28;20223;-74
2022/10/09 16:34:54;;;;;;;6.70;1.00;;;12.70;99.90;;;;;;4964473;28;20196;-76
2022/10/09 16:37:25;;;;;;;3.97;1.27;;;12.80;99.90;;;;;;4968535;28;20211;-77
2022/10/09 16:39:56;;;;;;;1.95;0.80;;;12.90;99.90;;;;;;4965843;28;20239;-78
2022/10/09 16:42:27;;;;;;;4.22;0.75;;;13.00;99.90;;;;;;4963916;28;20569;-80
2022/10/09 16:45:00;;;;;;;4.10;0.90;;;13.00;99.90;;;;;;4966350;28;20207;-80
2022/10/09 16:47:32;;;;;;;6.38;0.80;;;13.00;99.90;;;;;;4967153;28;20961;-79
2022/10/09 16:50:03;;;;;;;4.50;0.80;;;13.00;99.90;;;;;;4963922;28;20196;-72
2022/10/09 16:52:34;;;;;;;4.97;0.80;;;12.90;99.90;;;;;;4971574;28;20602;-77
2022/10/09 16:55:05;;;;;;;5.70;0.70;;;12.90;99.90;;;;;;4964199;28;20196;-79
2022/10/09 16:57:36;;;;;;;4.97;0.85;;;12.80;99.90;;;;;;4969298;28;20588;-78
2022/10/09 17:00:10;;;;;;;5.18;0.90;;;12.80;99.90;;;;;;4960549;28;20204;-79
2022/10/09 17:02:41;;;;;;;6.55;0.70;;;12.80;99.90;;;;;;4968826;28;20228;-80
2022/10/09 17:05:12;;;;;;;6.43;0.70;;;12.80;99.90;;;;;;4969640;28;20196;-76
2022/10/09 17:07:43;;;;;;;2.67;0.80;;;12.70;99.90;;;;;;4963351;28;20220;-79
2022/10/09 17:10:14;;;;;;;3.05;0.60;;;12.70;99.90;;;;;;4965748;28;20564;-79
2022/10/09 17:12:45;;;;;;;5.78;1.00;;;12.70;99.90;;;;;;4967350;28;20795;-78
2022/10/09 17:15:18;;;;;;;3.97;0.65;;;12.70;99.90;;;;;;4964697;28;20204;-79
2022/10/09 17:17:49;;;;;;;4.80;0.90;;;12.70;99.90;;;;;;4965472;28;20207;-77
2022/10/09 17:20:20;;;;;;;3.88;0.70;;;12.60;99.90;;;;;;4965059;28;20200;-77
2022/10/09 17:22:51;;;;;;;4.65;0.85;;;12.60;99.90;;;;;;4966191;28;20661;-77
2022/10/09 17:25:22;;;;;;;5.70;0.90;;;12.60;99.90;;;;;;4963382;28;20196;-78
2022/10/09 17:27:53;;;;;;;4.38;0.85;;;12.60;99.90;;;;;;4961409;28;20186;-76
2022/10/09 17:30:26;;;;;;;4.85;0.80;;;12.60;99.90;;;;;;4964951;28;20215;-77
2022/10/09 17:32:57;;;;;;;4.45;0.93;;;12.70;99.90;;;;;;4970361;28;20221;-74
2022/10/09 17:35:28;;;;;;;3.42;0.90;;;12.60;99.90;;;;;;4966650;28;20201;-78
2022/10/09 17:37:59;;;;;;;6.25;1.00;;;12.60;99.90;;;;;;4970937;28;20291;-76
2022/10/09 17:40:30;;;;;;;5.22;1.08;;;12.70;99.90;;;;;;4967636;28;20222;-78
2022/10/09 17:43:01;;;;;;;4.30;1.00;;;12.60;99.90;;;;;;4964716;28;20206;-79
2022/10/09 17:45:38;;;;;;;3.30;0.82;;;12.60;99.90;;;;;;4967069;28;20204;-79
2022/10/09 17:48:09;;;;;;;4.50;1.15;;;12.60;99.90;;;;;;4964945;28;20610;-79
2022/10/09 17:50:40;;;;;;;3.78;1.10;;;12.60;99.90;;;;;;4965850;28;20218;-78
2022/10/09 17:53:11;;;;;;;7.50;0.90;;;12.60;99.90;;;;;;4966292;28;20216;-77
2022/10/09 17:55:41;;;;;;;3.80;1.05;;;12.60;99.90;;;;;;4967763;28;20678;-77
2022/10/09 17:58:12;;;;;;;2.60;0.80;;;12.60;99.90;;;;;;4963582;28;20196;-79
2022/10/09 18:00:46;;;;;;;4.75;1.08;;;12.60;99.90;;;;;;4968562;28;20203;-78
2022/10/09 18:03:17;;;;;;;8.48;1.00;;;12.60;99.90;;;;;;4961557;28;20695;-79
2022/10/09 18:05:49;;;;;;;5.00;1.00;;;12.60;99.90;;;;;;4961051;28;20205;-77
2022/10/09 18:08:22;;;;;;;5.60;1.15;;;12.60;99.90;;;;;;4964117;28;20220;-80
2022/10/09 18:11:01;;;;;;;2.75;0.77;;;12.60;99.90;;;;;;4964643;28;20196;-77
2022/10/09 18:13:32;;;;;;;6.13;1.10;;;12.60;99.90;;;;;;4964794;28;20268;-78
2022/10/09 18:16:08;;;;;;;4.32;1.05;;;12.60;99.90;;;;;;4966737;28;20204;-74
2022/10/09 18:18:39;;;;;;;4.65;1.38;;;12.50;99.90;;;;;;4968741;28;20192;-78
2022/10/09 18:21:11;;;;;;;4.68;1.20;;;12.50;99.90;;;;;;4964681;28;20193;-74
2022/10/09 18:23:43;;;;;;;4.32;1.13;;;12.50;99.90;;;;;;4957369;28;20216;-76
2022/10/09 18:26:16;;;;;;;5.70;1.20;;;12.50;99.90;;;;;;4963206;28;20203;-74
2022/10/09 18:28:48;;;;;;;6.53;1.20;;;12.40;99.90;;;;;;4965976;28;20207;-77
2022/10/09 18:31:22;;;;;;;5.13;1.05;;;12.40;99.90;;;;;;4966682;28;20215;-77
2022/10/09 18:33:53;;;;;;;4.05;1.00;;;12.40;99.90;;;;;;4966774;28;20211;-78
2022/10/09 18:36:30;;;;;;;7.55;1.10;;;12.40;99.90;;;;;;4962479;28;20209;-77
2022/10/09 18:39:03;;;;;;;4.00;1.00;;;12.30;99.90;;;;;;4974441;28;20248;-78
2022/10/09 18:41:34;;;;;;;7.57;1.23;;;12.30;99.90;;;;;;4971060;28;20251;-78
2022/10/09 18:44:05;;;;;;;4.90;1.17;;;12.30;99.90;;;;;;4961612;28;20267;-75
2022/10/09 18:46:42;;;;;;;4.55;1.00;;;12.30;99.90;;;;;;4962185;28;20204;-79
2022/10/09 18:49:15;;;;;;;6.57;1.33;;;12.20;99.90;;;;;;4969378;28;20222;-77
2022/10/09 18:51:48;;;;;;;6.57;1.27;;;12.20;99.90;;;;;;4965190;28;20204;-78
2022/10/09 18:54:20;;;;;;;7.57;1.48;;;12.10;99.90;;;;;;4971079;28;20220;-77
2022/10/09 18:56:51;;;;;;;7.60;1.10;;;12.10;99.90;;;;;;4972717;28;20200;-77
2022/10/09 18:59:24;;;;;;;9.88;1.23;;;12.10;99.90;;;;;;4970105;28;20201;-78
2022/10/09 19:01:57;;;;;;;7.75;1.30;;;12.10;99.90;;;;;;4972315;28;20232;-78
2022/10/09 19:04:27;;;;;;;6.53;1.10;;;12.10;99.90;;;;;;4967385;28;20208;-76
2022/10/09 19:06:58;;;;;;;8.57;1.50;;;12.10;99.90;;;;;;4965874;28;20200;-77
2022/10/09 19:09:29;;;;;;;4.95;1.15;;;12.10;99.90;;;;;;4962915;28;20227;-76
2022/10/09 19:12:00;;;;;;;5.68;1.33;;;12.10;99.90;;;;;;4970439;28;20189;-76
2022/10/09 19:14:31;;;;;;;12.57;1.35;;;12.00;99.90;;;;;;4966643;28;20225;-76
2022/10/09 19:17:04;;;;;;;11.45;1.55;;;12.00;99.90;;;;;;4972002;28;20196;-76
2022/10/09 19:19:35;;;;;;;13.50;1.55;;;12.00;99.90;;;;;;4965714;28;20212;-77
2022/10/09 19:22:06;;;;;;;9.70;1.60;;;12.00;99.90;;;;;;4967732;28;20201;-78
2022/10/09 19:24:37;;;;;;;5.00;1.73;;;12.00;99.90;;;;;;4972078;28;20201;-77
2022/10/09 19:27:08;;;;;;;4.82;1.00;;;12.00;99.90;;;;;;4972182;28;20200;-76
2022/10/09 19:29:39;;;;;;;4.97;1.20;;;12.00;99.90;;;;;;4961491;28;20204;-77
2022/10/09 19:32:12;;;;;;;9.70;1.45;;;12.00;99.90;;;;;;4969206;28;20639;-77
2022/10/09 19:34:43;;;;;;;3.55;1.08;;;12.00;99.90;;;;;;4965464;28;20710;-77
2022/10/09 19:37:14;;;;;;;6.55;1.30;;;12.00;99.90;;;;;;4960939;23;20241;-70
2022/10/09 19:39:47;;;;;;;5.25;1.20;;;12.00;99.90;;;;;;4968532;28;20196;-70
2022/10/09 19:42:18;;;;;;;5.55;1.42;;;12.00;99.90;;;;;;4970703;28;20208;-70
2022/10/09 19:44:49;;;;;;;6.75;1.48;;;12.00;99.90;;;;;;4971100;28;20203;-70
2022/10/09 19:47:22;;;;;;;7.63;1.52;;;12.00;99.90;;;;;;4969410;28;20659;-72
2022/10/09 19:49:53;;;;;;;3.60;1.23;;;12.00;99.90;;;;;;4968272;28;20659;-70
2022/10/09 19:52:24;;;;;;;6.03;1.30;;;12.10;99.90;;;;;;4970724;28;20944;-70
2022/10/09 19:54:55;;;;;;;8.07;1.33;;;12.10;99.90;;;;;;4968917;28;20235;-70
2022/10/09 19:57:27;;;;;;;8.65;1.30;;;12.10;99.90;;;;;;4972313;28;20205;-70
2022/10/09 19:59:58;;;;;;;7.32;1.40;;;12.10;99.90;;;;;;4973518;28;20247;-71
2022/10/09 20:02:30;;;;;;;4.35;1.00;;;12.10;99.90;;;;;;4970974;28;20196;-70
2022/10/09 20:05:01;;;;;;;8.95;1.30;;;12.10;99.90;;;;;;4964490;28;20205;-70
2022/10/09 20:07:32;;;;;;;4.25;1.20;;;12.20;99.90;;;;;;4971515;28;20204;-70